Time;durP1;ratioP1;P1;durP2;ratioP2;P2;SDS_P1;SDS_P2;PMS_P1;PMS_P2;Temp;Humidity;BMP_temperature;BMP_pressure;BME280_temperature;BME280_humidity;BME280_pressure;Samples;Min_cycle;Max_cycle;Signal;HPM_P1;HPM_P2
2023/06/05 00:00:28;;;;;;;0.10;0.10;;;;;;;18.27;55.44;102464.94;5048416;28;20557;-66
2023/06/05 00:02:53;;;;;;;0.10;0.10;;;;;;;17.86;56.89;102472.31;5051979;28;20436;-66
2023/06/05 00:05:19;;;;;;;0.20;0.20;;;;;;;18.02;55.78;102466.22;5053244;28;20040;-66
2023/06/05 00:07:45;;;;;;;0.10;0.10;;;;;;;18.79;53.81;102462.31;5047355;28;20057;-65
2023/06/05 00:10:10;;;;;;;0.10;0.10;;;;;;;18.83;53.54;102467.00;5050727;28;20087;-66
2023/06/05 00:12:36;;;;;;;0.20;0.20;;;;;;;18.89;52.86;102466.06;5052772;28;20028;-67
2023/06/05 00:15:04;;;;;;;0.20;0.20;;;;;;;18.65;53.58;102463.63;5051937;28;20025;-65
2023/06/05 00:17:30;;;;;;;0.20;0.20;;;;;;;18.18;55.81;102463.59;5052440;28;20480;-66
2023/06/05 00:19:58;;;;;;;0.17;0.17;;;;;;;18.52;55.28;102475.59;5053702;28;20029;-66
2023/06/05 00:22:24;;;;;;;0.20;0.20;;;;;;;18.89;52.86;102471.50;5052374;28;20044;-67
2023/06/05 00:24:50;;;;;;;0.28;0.28;;;;;;;19.01;52.51;102469.56;5050664;28;20518;-65
2023/06/05 00:27:15;;;;;;;0.30;0.30;;;;;;;18.63;53.27;102463.88;5052377;28;20021;-67
2023/06/05 00:29:41;;;;;;;0.15;0.15;;;;;;;18.69;53.74;102470.25;5053523;28;20040;-67
2023/06/05 00:32:06;;;;;;;0.10;0.10;;;;;;;18.50;54.02;102469.56;5053641;28;20037;-66
2023/06/05 00:34:31;;;;;;;0.10;0.10;;;;;;;18.09;55.55;102475.06;5053594;28;20037;-66
2023/06/05 00:36:57;;;;;;;0.20;0.20;;;;;;;18.39;54.75;102471.19;5053537;28;20037;-66
2023/06/05 00:39:23;;;;;;;0.10;0.10;;;;;;;18.56;54.07;102474.06;5056983;28;20545;-67
2023/06/05 00:41:48;;;;;;;0.13;0.13;;;;;;;18.35;54.76;102461.00;5056113;28;20048;-66
2023/06/05 00:44:14;;;;;;;0.10;0.10;;;;;;;18.13;55.07;102460.78;5053492;28;20032;-65
2023/06/05 00:46:39;;;;;;;0.20;0.20;;;;;;;18.30;54.51;102459.00;5053381;28;20029;-65
2023/06/05 00:49:06;;;;;;;0.10;0.10;;;;;;;18.54;54.25;102459.00;5068954;28;20393;-68
2023/06/05 00:51:32;;;;;;;0.20;0.20;;;;;;;18.35;54.79;102456.41;5053756;28;20049;-67
2023/06/05 00:53:58;;;;;;;0.20;0.20;;;;;;;18.04;55.19;102461.38;5053117;28;20094;-66
2023/06/05 00:56:24;;;;;;;0.15;0.15;;;;;;;18.49;54.09;102450.75;5050715;28;20037;-68
2023/06/05 00:58:49;;;;;;;0.10;0.10;;;;;;;18.13;55.35;102457.22;5053019;28;20060;-66
2023/06/05 01:01:16;;;;;;;0.10;0.10;;;;;;;18.33;54.53;102453.09;5049653;28;20525;-66
2023/06/05 01:03:44;;;;;;;0.10;0.10;;;;;;;18.71;53.32;102459.94;5052941;28;20029;-65
2023/06/05 01:06:11;;;;;;;0.20;0.20;;;;;;;18.56;53.70;102456.88;5053257;28;20081;-66
2023/06/05 01:08:41;;;;;;;0.17;0.17;;;;;;;18.32;54.28;102456.88;5053123;28;20037;-66
2023/06/05 01:11:16;;;;;;;0.10;0.10;;;;;;;18.54;53.73;102448.13;5053046;28;20032;-66
2023/06/05 01:13:50;;;;;;;0.20;0.20;;;;;;;18.69;53.17;102454.72;5052809;28;20060;-66
2023/06/05 01:16:15;;;;;;;0.10;0.10;;;;;;;18.22;54.35;102456.63;5052741;28;20129;-66
2023/06/05 01:18:45;;;;;;;0.20;0.20;;;;;;;18.28;54.42;102452.13;5052700;28;20540;-66
2023/06/05 01:21:15;;;;;;;0.20;0.20;;;;;;;17.96;55.15;102448.09;5053343;28;20020;-66
2023/06/05 01:23:44;;;;;;;0.10;0.10;;;;;;;17.57;56.21;102441.41;5052341;28;20114;-65
2023/06/05 01:26:17;;;;;;;0.10;0.10;;;;;;;18.23;54.61;102447.41;5052467;28;20037;-66
2023/06/05 01:28:47;;;;;;;0.10;0.10;;;;;;;18.29;54.69;102441.03;5052239;28;20040;-66
2023/06/05 01:31:16;;;;;;;0.20;0.20;;;;;;;17.95;54.89;102446.44;5052496;28;20029;-64
2023/06/05 01:33:52;;;;;;;0.10;0.10;;;;;;;18.42;53.86;102454.41;5034597;28;20448;-67
2023/06/05 01:36:19;;;;;;;0.10;0.10;;;;;;;18.21;54.31;102448.72;5042787;28;20069;-68
2023/06/05 01:38:46;;;;;;;0.10;0.10;;;;;;;17.95;55.51;102444.53;5052587;28;20033;-66
2023/06/05 01:41:13;;;;;;;0.10;0.10;;;;;;;18.37;54.05;102446.13;5052266;28;20143;-66
2023/06/05 01:43:39;;;;;;;0.10;0.10;;;;;;;17.51;56.13;102445.88;5052167;28;20029;-69
2023/06/05 01:46:07;;;;;;;0.20;0.20;;;;;;;18.15;54.79;102441.50;5034403;28;20037;-64
2023/06/05 01:48:33;;;;;;;0.10;0.10;;;;;;;17.57;55.88;102448.75;5052505;28;20029;-67
2023/06/05 01:51:00;;;;;;;0.10;0.10;;;;;;;17.22;58.03;102438.53;5051939;28;20029;-67
2023/06/05 01:53:28;;;;;;;0.20;0.20;;;;;;;17.37;57.01;102438.97;5052073;28;20026;-66
2023/06/05 01:55:59;;;;;;;0.20;0.20;;;;;;;17.43;57.13;102434.47;5029552;28;20033;-69
2023/06/05 01:58:26;;;;;;;0.20;0.20;;;;;;;17.85;55.75;102438.84;5037058;28;20045;-65
2023/06/05 02:00:57;;;;;;;0.20;0.20;;;;;;;17.89;55.24;102431.88;5043984;28;20473;-67
2023/06/05 02:03:23;;;;;;;0.20;0.20;;;;;;;17.60;55.87;102429.22;5052263;28;20108;-67
2023/06/05 02:05:51;;;;;;;0.20;0.20;;;;;;;17.55;56.26;102436.19;5051379;28;20044;-66
2023/06/05 02:08:19;;;;;;;0.10;0.10;;;;;;;17.44;56.40;102436.13;5051795;28;20128;-66
2023/06/05 02:10:52;;;;;;;0.20;0.20;;;;;;;17.49;56.50;102433.59;5051287;28;20043;-64
2023/06/05 02:13:22;;;;;;;0.10;0.10;;;;;;;16.83;58.89;102430.91;5051100;28;20029;-66
2023/06/05 02:15:49;;;;;;;0.20;0.20;;;;;;;16.55;59.29;102434.16;5051402;28;20043;-65
2023/06/05 02:18:15;;;;;;;0.10;0.10;;;;;;;16.97;58.59;102437.00;5051484;28;20450;-67
2023/06/05 02:20:41;;;;;;;0.20;0.20;;;;;;;17.04;58.13;102440.47;5051433;28;20527;-65
2023/06/05 02:23:06;;;;;;;0.10;0.10;;;;;;;17.18;57.40;102421.03;5051522;28;20555;-67
2023/06/05 02:25:32;;;;;;;0.10;0.10;;;;;;;16.32;60.55;102427.69;5036902;28;20564;-65
2023/06/05 02:27:57;;;;;;;0.17;0.17;;;;;;;16.88;58.79;102428.34;5030951;28;20058;-65
2023/06/05 02:30:23;;;;;;;0.17;0.17;;;;;;;17.02;57.58;102424.38;5031623;28;20017;-67
2023/06/05 02:32:56;;;;;;;0.20;0.20;;;;;;;16.22;60.12;102430.09;5056273;28;20033;-66
2023/06/05 02:35:22;;;;;;;0.28;0.28;;;;;;;16.14;61.17;102427.66;5050731;28;20036;-68
2023/06/05 02:37:48;;;;;;;0.10;0.10;;;;;;;16.72;59.04;102422.69;5047001;28;20102;-66
2023/06/05 02:40:14;;;;;;;0.10;0.10;;;;;;;16.82;58.55;102431.97;5050858;28;20032;-65
2023/06/05 02:42:40;;;;;;;0.10;0.10;;;;;;;17.35;56.64;102423.94;5050972;28;20373;-66
2023/06/05 02:45:07;;;;;;;0.30;0.30;;;;;;;17.20;56.91;102424.34;5051543;28;20021;-66
2023/06/05 02:47:32;;;;;;;0.20;0.20;;;;;;;17.26;56.58;102418.00;5050840;28;20388;-68
2023/06/05 02:49:58;;;;;;;0.20;0.20;;;;;;;16.91;58.10;102417.00;5050703;28;20033;-66
2023/06/05 02:52:24;;;;;;;0.17;0.17;;;;;;;17.20;56.44;102416.19;5050640;28;20175;-66
2023/06/05 02:54:50;;;;;;;0.20;0.20;;;;;;;17.24;56.90;102413.84;5027766;28;20065;-67
2023/06/05 02:57:17;;;;;;;0.10;0.10;;;;;;;16.63;58.91;102417.56;5065005;28;20068;-67
2023/06/05 02:59:43;;;;;;;0.25;0.25;;;;;;;16.74;58.30;102417.88;5050438;28;20025;-65
2023/06/05 03:02:09;;;;;;;0.10;0.10;;;;;;;16.73;58.40;102416.22;5050399;28;20071;-67
2023/06/05 03:04:34;;;;;;;0.10;0.10;;;;;;;16.56;59.64;102414.09;5041655;28;20075;-66
2023/06/05 03:07:03;;;;;;;0.10;0.10;;;;;;;16.17;60.68;102408.25;5049872;28;20123;-65
2023/06/05 03:09:30;;;;;;;0.10;0.10;;;;;;;16.80;58.54;102411.53;5051052;28;20029;-66
2023/06/05 03:11:55;;;;;;;0.10;0.10;;;;;;;16.61;58.86;102408.81;5050156;28;20039;-67
2023/06/05 03:14:20;;;;;;;0.10;0.10;;;;;;;16.93;57.42;102409.47;5049332;28;20132;-66
2023/06/05 03:16:46;;;;;;;0.10;0.10;;;;;;;16.42;59.47;102406.28;5049446;28;20531;-65
2023/06/05 03:19:11;;;;;;;0.10;0.10;;;;;;;16.73;58.67;102406.16;5049806;28;20201;-66
2023/06/05 03:21:40;;;;;;;0.10;0.10;;;;;;;16.42;59.86;102403.59;5050414;28;20029;-68
2023/06/05 03:24:12;;;;;;;0.15;0.15;;;;;;;16.68;58.86;102401.44;5048823;28;20052;-67
2023/06/05 03:26:38;;;;;;;0.10;0.10;;;;;;;16.87;59.09;102401.41;5049892;28;20067;-67
2023/06/05 03:29:03;;;;;;;0.10;0.10;;;;;;;16.45;59.66;102401.25;5050105;28;20037;-65
2023/06/05 03:31:30;;;;;;;0.20;0.20;;;;;;;16.54;59.51;102405.38;5048786;28;20033;-67
2023/06/05 03:33:55;;;;;;;0.10;0.10;;;;;;;16.56;60.13;102399.69;5050012;28;20048;-66
2023/06/05 03:36:21;;;;;;;0.20;0.20;;;;;;;16.64;59.05;102402.13;5050204;28;20052;-66
2023/06/05 03:38:46;;;;;;;0.13;0.13;;;;;;;16.98;57.66;102396.00;5050078;28;20033;-65
2023/06/05 03:41:11;;;;;;;0.20;0.20;;;;;;;16.84;58.66;102388.28;5050228;28;20031;-65
2023/06/05 03:43:37;;;;;;;0.10;0.10;;;;;;;17.03;58.65;102387.19;5049352;28;20043;-68
2023/06/05 03:46:03;;;;;;;0.10;0.10;;;;;;;17.03;58.44;102390.75;5049345;28;20489;-65
2023/06/05 03:48:28;;;;;;;0.10;0.10;;;;;;;17.07;58.08;102381.06;5049562;28;20527;-66
2023/06/05 03:50:55;;;;;;;0.25;0.25;;;;;;;16.39;59.52;102393.19;5049187;28;20033;-65
2023/06/05 03:53:22;;;;;;;0.20;0.20;;;;;;;16.72;59.33;102390.94;5049526;28;20491;-70
2023/06/05 03:55:49;;;;;;;0.13;0.13;;;;;;;16.26;60.20;102388.72;5049423;28;20538;-68
2023/06/05 03:58:16;;;;;;;0.10;0.10;;;;;;;16.73;58.85;102394.50;5048817;28;20068;-65
2023/06/05 04:00:45;;;;;;;0.10;0.10;;;;;;;17.14;57.87;102398.09;5049029;28;20064;-66
2023/06/05 04:03:12;;;;;;;0.15;0.15;;;;;;;17.48;56.12;102388.41;5047726;28;20501;-65
2023/06/05 04:05:39;;;;;;;0.25;0.25;;;;;;;17.80;55.00;102389.78;5048918;28;20048;-68
2023/06/05 04:08:05;;;;;;;0.30;0.30;;;;;;;17.82;55.43;102395.00;5049272;28;20025;-65
2023/06/05 04:10:31;;;;;;;0.10;0.10;;;;;;;17.71;55.42;102398.53;5030338;28;20636;-67
2023/06/05 04:12:56;;;;;;;0.20;0.20;;;;;;;17.78;54.50;102400.06;5028447;28;20120;-66
2023/06/05 04:15:23;;;;;;;0.10;0.10;;;;;;;16.89;57.70;102402.00;5037343;28;20170;-65
2023/06/05 04:17:48;;;;;;;0.20;0.20;;;;;;;17.02;57.86;102408.09;5048058;28;20044;-67
2023/06/05 04:20:14;;;;;;;0.22;0.22;;;;;;;17.11;57.12;102403.16;5049973;28;20659;-66
2023/06/05 04:22:40;;;;;;;0.10;0.10;;;;;;;17.35;56.51;102404.91;5049581;28;20048;-66
2023/06/05 04:25:06;;;;;;;0.20;0.20;;;;;;;17.55;55.63;102395.41;5057214;28;20044;-65
2023/06/05 04:27:32;;;;;;;0.10;0.10;;;;;;;16.69;58.49;102405.81;5049295;28;20132;-67
2023/06/05 04:29:57;;;;;;;0.10;0.10;;;;;;;16.75;58.41;102411.38;5031475;28;20033;-65
2023/06/05 04:32:22;;;;;;;0.03;0.03;;;;;;;17.01;57.20;102413.75;5049376;28;20377;-69
2023/06/05 04:34:48;;;;;;;0.20;0.20;;;;;;;17.67;56.09;102409.03;5031992;28;20443;-68
2023/06/05 04:37:13;;;;;;;0.10;0.10;;;;;;;17.86;54.98;102407.88;5064484;28;20032;-66
2023/06/05 04:39:39;;;;;;;0.20;0.20;;;;;;;17.96;55.04;102410.84;5049352;28;20137;-67
2023/06/05 04:42:04;;;;;;;0.20;0.20;;;;;;;17.43;56.01;102415.47;5050826;28;20040;-65
2023/06/05 04:44:30;;;;;;;0.17;0.17;;;;;;;17.26;56.63;102414.44;5052852;28;20545;-68
2023/06/05 04:46:55;;;;;;;0.20;0.20;;;;;;;17.92;55.24;102414.28;5053583;28;20033;-67
2023/06/05 04:49:22;;;;;;;0.20;0.20;;;;;;;18.40;53.37;102420.28;5052762;28;20483;-66
2023/06/05 04:51:48;;;;;;;0.30;0.30;;;;;;;17.44;56.47;102417.94;5053066;28;20059;-65
2023/06/05 04:54:14;;;;;;;0.15;0.15;;;;;;;17.92;55.08;102411.56;5052887;28;20037;-66
2023/06/05 04:56:40;;;;;;;0.10;0.10;;;;;;;18.46;53.07;102415.81;5054591;28;20029;-66
2023/06/05 04:59:05;;;;;;;0.20;0.20;;;;;;;17.17;57.01;102413.94;5053049;28;20044;-64
2023/06/05 05:01:32;;;;;;;0.20;0.20;;;;;;;18.64;53.27;102412.94;5052518;28;20041;-66
2023/06/05 05:03:57;;;;;;;0.20;0.20;;;;;;;17.72;56.06;102413.78;5052745;28;20053;-66
2023/06/05 05:06:24;;;;;;;0.20;0.20;;;;;;;18.61;53.30;102416.16;5052654;28;20482;-65
2023/06/05 05:08:49;;;;;;;0.13;0.13;;;;;;;17.38;56.54;102420.75;5033359;28;20047;-66
2023/06/05 05:11:15;;;;;;;0.10;0.10;;;;;;;17.44;56.98;102426.09;5052601;28;20017;-66
2023/06/05 05:13:41;;;;;;;0.30;0.30;;;;;;;17.84;55.07;102412.72;5059292;28;20037;-65
2023/06/05 05:16:07;;;;;;;0.20;0.20;;;;;;;17.83;56.17;102419.22;5062529;28;20128;-67
2023/06/05 05:18:34;;;;;;;0.10;0.10;;;;;;;18.24;54.06;102424.56;5055041;28;20101;-66
2023/06/05 05:20:59;;;;;;;0.13;0.13;;;;;;;18.26;54.41;102427.03;5054334;28;20373;-66
2023/06/05 05:23:25;;;;;;;0.10;0.10;;;;;;;18.20;54.72;102433.47;5054210;28;20033;-69
2023/06/05 05:25:51;;;;;;;0.20;0.20;;;;;;;17.69;56.39;102436.00;5052498;28;20057;-66
2023/06/05 05:28:16;;;;;;;0.10;0.10;;;;;;;19.01;52.81;102430.59;5051989;28;20040;-66
2023/06/05 05:30:41;;;;;;;0.20;0.20;;;;;;;18.00;55.65;102425.66;5052071;28;20473;-66
2023/06/05 05:33:07;;;;;;;0.30;0.30;;;;;;;18.29;55.01;102432.03;5052165;28;20040;-66
2023/06/05 05:35:32;;;;;;;0.30;0.30;;;;;;;18.59;54.11;102430.03;5052396;28;20465;-64
2023/06/05 05:37:58;;;;;;;0.22;0.22;;;;;;;17.31;57.96;102430.91;5052437;28;20439;-68
2023/06/05 05:40:23;;;;;;;0.20;0.20;;;;;;;18.31;55.05;102429.91;5051905;28;20033;-65
2023/06/05 05:42:49;;;;;;;0.20;0.20;;;;;;;18.93;53.47;102430.97;5031743;28;20046;-65
2023/06/05 05:45:14;;;;;;;0.20;0.20;;;;;;;19.26;52.33;102425.66;5031741;28;20036;-65
2023/06/05 05:47:40;;;;;;;0.20;0.20;;;;;;;19.05;52.26;102437.22;5032049;28;20030;-66
2023/06/05 05:50:06;;;;;;;0.20;0.20;;;;;;;18.45;54.37;102430.50;5032229;28;20044;-65
2023/06/05 05:52:31;;;;;;;0.10;0.10;;;;;;;17.99;56.25;102429.41;5031498;28;20033;-65
2023/06/05 05:54:58;;;;;;;0.20;0.20;;;;;;;19.21;52.56;102431.00;5034586;28;20064;-65
2023/06/05 05:57:24;;;;;;;0.10;0.10;;;;;;;17.67;57.93;102441.66;5049924;28;21356;-66
2023/06/05 05:59:50;;;;;;;0.10;0.10;;;;;;;18.77;54.95;102434.47;5050865;28;20453;-65
2023/06/05 06:02:16;;;;;;;0.17;0.17;;;;;;;18.75;54.21;102431.97;5051529;28;20040;-65
2023/06/05 06:04:43;;;;;;;0.10;0.10;;;;;;;18.70;55.22;102429.16;5050933;28;20094;-65
2023/06/05 06:07:09;;;;;;;0.20;0.20;;;;;;;19.02;54.17;102435.81;5051009;28;20568;-65
2023/06/05 06:09:35;;;;;;;0.20;0.20;;;;;;;19.25;52.83;102429.44;5051445;28;20037;-68
2023/06/05 06:12:05;;;;;;;0.10;0.10;;;;;;;19.08;54.12;102432.13;5070756;28;20047;-65
2023/06/05 06:14:34;;;;;;;0.10;0.10;;;;;;;19.78;51.62;102431.78;5071005;28;20024;-65
2023/06/05 06:17:02;;;;;;;0.10;0.10;;;;;;;19.66;51.71;102429.13;5058577;28;20081;-65
2023/06/05 06:19:27;;;;;;;0.10;0.10;;;;;;;19.56;51.74;102425.38;5049719;28;20094;-66
2023/06/05 06:21:53;;;;;;;0.20;0.20;;;;;;;19.65;51.35;102426.66;5050200;28;20033;-66
2023/06/05 06:24:22;;;;;;;0.30;0.30;;;;;;;19.77;50.96;102424.69;5047107;28;20088;-66
2023/06/05 06:26:48;;;;;;;0.10;0.10;;;;;;;18.83;53.92;102431.59;5048172;28;20037;-65
2023/06/05 06:29:17;;;;;;;0.20;0.20;;;;;;;19.43;52.88;102429.28;5050547;28;20043;-67
2023/06/05 06:31:43;;;;;;;0.20;0.20;;;;;;;19.49;51.59;102436.47;5047449;28;20090;-65
2023/06/05 06:34:10;;;;;;;0.20;0.20;;;;;;;18.88;53.86;102423.56;5050435;28;20037;-65
2023/06/05 06:36:40;;;;;;;0.20;0.20;;;;;;;19.18;52.78;102429.56;5050020;28;20029;-65
2023/06/05 06:39:08;;;;;;;0.10;0.10;;;;;;;18.87;53.79;102431.97;5047859;28;20029;-65
2023/06/05 06:41:35;;;;;;;0.20;0.20;;;;;;;19.07;53.35;102435.09;5049847;28;20026;-66
2023/06/05 06:44:01;;;;;;;0.17;0.17;;;;;;;20.00;50.39;102429.97;5050939;28;20024;-68
2023/06/05 06:46:26;;;;;;;0.20;0.20;;;;;;;18.15;55.24;102431.44;5049884;28;20564;-64
2023/06/05 06:48:52;;;;;;;0.20;0.20;;;;;;;20.23;49.97;102427.06;5050115;28;20043;-66
2023/06/05 06:51:17;;;;;;;0.10;0.10;;;;;;;19.54;51.67;102430.25;5050428;28;20413;-66
2023/06/05 06:53:43;;;;;;;0.10;0.10;;;;;;;20.62;49.16;102416.97;5049274;28;20043;-67
2023/06/05 06:56:09;;;;;;;0.10;0.10;;;;;;;20.44;49.52;102429.00;5049741;28;20064;-67
2023/06/05 06:58:36;;;;;;;0.10;0.10;;;;;;;20.40;49.17;102433.31;5031519;28;20600;-66
2023/06/05 07:01:01;;;;;;;0.20;0.20;;;;;;;20.36;49.75;102434.94;5048722;28;20041;-66
2023/06/05 07:03:28;;;;;;;0.20;0.20;;;;;;;18.72;54.54;102442.53;5049265;28;20559;-65
2023/06/05 07:05:53;;;;;;;0.20;0.20;;;;;;;19.51;52.87;102452.59;5049214;28;20025;-65
2023/06/05 07:08:18;;;;;;;0.20;0.20;;;;;;;19.49;52.67;102447.38;5049720;28;20078;-70
2023/06/05 07:10:44;;;;;;;0.10;0.10;;;;;;;19.82;51.59;102443.84;5050152;28;20036;-67
2023/06/05 07:13:09;;;;;;;0.10;0.10;;;;;;;19.53;51.59;102445.81;5035344;28;20036;-64
2023/06/05 07:15:35;;;;;;;0.13;0.13;;;;;;;19.68;52.40;102434.34;5051086;28;20405;-66
2023/06/05 07:18:00;;;;;;;0.10;0.10;;;;;;;21.87;46.30;102438.59;5030682;28;20029;-65
2023/06/05 07:20:25;;;;;;;0.10;0.10;;;;;;;20.91;48.33;102435.63;5050259;28;20037;-66
2023/06/05 07:22:51;;;;;;;0.10;0.10;;;;;;;21.75;46.09;102442.31;5050134;28;20078;-67
2023/06/05 07:25:17;;;;;;;0.10;0.10;;;;;;;22.37;44.31;102438.94;5050051;28;20068;-66
2023/06/05 07:27:44;;;;;;;0.20;0.20;;;;;;;22.19;44.91;102434.72;5049244;28;20040;-65
2023/06/05 07:30:10;;;;;;;0.10;0.10;;;;;;;22.08;45.61;102430.28;5049756;28;20033;-66
2023/06/05 07:32:35;;;;;;;0.10;0.10;;;;;;;21.22;47.63;102441.50;5049793;28;20021;-65
2023/06/05 07:35:01;;;;;;;0.10;0.10;;;;;;;20.36;50.25;102443.13;5050318;28;20021;-67
2023/06/05 07:37:27;;;;;;;0.10;0.10;;;;;;;21.66;47.49;102441.13;5049485;28;20037;-65
2023/06/05 07:39:53;;;;;;;0.10;0.10;;;;;;;22.60;44.83;102439.38;5049897;28;20055;-64
2023/06/05 07:42:19;;;;;;;0.20;0.20;;;;;;;21.86;47.01;102443.25;5049100;28;20148;-66
2023/06/05 07:44:45;;;;;;;0.20;0.20;;;;;;;21.65;46.50;102444.13;5049730;28;20582;-67
2023/06/05 07:47:10;;;;;;;0.17;0.17;;;;;;;21.61;47.55;102429.31;5050204;28;20488;-65
2023/06/05 07:49:35;;;;;;;0.10;0.10;;;;;;;22.19;45.39;102440.19;5049687;28;20041;-66
2023/06/05 07:52:01;;;;;;;0.10;0.10;;;;;;;22.53;44.69;102435.22;5049315;28;20029;-67
2023/06/05 07:54:26;;;;;;;0.10;0.10;;;;;;;23.31;42.35;102435.00;5049465;28;20040;-67
2023/06/05 07:56:52;;;;;;;0.10;0.10;;;;;;;22.07;45.21;102433.28;5048902;28;20025;-66
2023/06/05 07:59:24;;;;;;;0.10;0.10;;;;;;;22.89;43.83;102433.50;5049926;28;20087;-66
2023/06/05 08:01:49;;;;;;;0.10;0.10;;;;;;;23.45;41.16;102433.38;5030794;28;20412;-67
2023/06/05 08:04:15;;;;;;;0.10;0.10;;;;;;;23.71;41.21;102430.66;5049504;28;20033;-68
2023/06/05 08:06:41;;;;;;;0.10;0.10;;;;;;;23.51;41.42;102428.72;5049315;28;20535;-67
2023/06/05 08:09:09;;;;;;;0.10;0.10;;;;;;;23.43;42.45;102434.75;5049566;28;20029;-66
2023/06/05 08:11:36;;;;;;;0.20;0.20;;;;;;;23.49;41.38;102425.44;5049292;28;20025;-66
2023/06/05 08:14:03;;;;;;;0.10;0.10;;;;;;;23.12;42.92;102433.00;5050014;28;20029;-68
2023/06/05 08:16:29;;;;;;;0.10;0.10;;;;;;;22.59;44.80;102420.47;5037268;28;20072;-67
2023/06/05 08:18:54;;;;;;;0.10;0.10;;;;;;;22.55;44.70;102431.13;5014701;28;20053;-66
2023/06/05 08:21:20;;;;;;;0.10;0.10;;;;;;;22.73;44.12;102429.03;5032811;28;20104;-66
2023/06/05 08:23:46;;;;;;;0.10;0.10;;;;;;;22.37;45.82;102425.25;5033436;28;20069;-66
2023/06/05 08:26:12;;;;;;;0.10;0.10;;;;;;;23.53;43.18;102413.66;5033593;28;20099;-66
2023/06/05 08:28:39;;;;;;;0.20;0.20;;;;;;;22.97;43.68;102431.06;5033053;28;20072;-67
2023/06/05 08:31:05;;;;;;;0.10;0.10;;;;;;;23.18;43.38;102415.47;5052363;28;20094;-67
2023/06/05 08:33:34;;;;;;;0.10;0.10;;;;;;;23.45;42.51;102416.94;5053255;28;20455;-65
2023/06/05 08:36:01;;;;;;;0.10;0.10;;;;;;;22.60;44.11;102406.50;5053257;28;20095;-66
2023/06/05 08:38:27;;;;;;;0.10;0.10;;;;;;;22.92;43.30;102409.09;5053525;28;20017;-67
2023/06/05 08:40:59;;;;;;;0.10;0.10;;;;;;;24.08;40.30;102395.50;5049212;28;20106;-67
2023/06/05 08:43:25;;;;;;;0.10;0.10;;;;;;;22.86;43.33;102401.13;5033243;28;20474;-65
2023/06/05 08:45:55;;;;;;;0.10;0.10;;;;;;;23.85;41.13;102385.09;5043622;28;20040;-66
2023/06/05 08:48:21;;;;;;;0.10;0.10;;;;;;;22.21;43.58;102401.63;5033020;28;20046;-66
2023/06/05 08:50:51;;;;;;;0.10;0.10;;;;;;;23.16;41.85;102409.44;5032826;28;20476;-65
2023/06/05 08:53:17;;;;;;;0.10;0.10;;;;;;;23.92;40.20;102402.91;5033596;28;20022;-66
2023/06/05 08:55:45;;;;;;;0.10;0.10;;;;;;;24.07;40.46;102402.94;5042861;28;20131;-65
2023/06/05 08:58:12;;;;;;;0.10;0.10;;;;;;;24.05;41.16;102399.66;5052400;28;20037;-66
2023/06/05 09:00:38;;;;;;;0.10;0.10;;;;;;;24.72;39.01;102396.47;5052442;28;20036;-67
2023/06/05 09:03:03;;;;;;;0.10;0.10;;;;;;;23.72;40.83;102396.63;5067908;28;20037;-66
2023/06/05 09:05:29;;;;;;;0.10;0.10;;;;;;;24.78;39.59;102394.50;5053067;28;20060;-67
2023/06/05 09:07:54;;;;;;;0.10;0.10;;;;;;;24.38;40.13;102399.03;5051564;28;20134;-65
2023/06/05 09:10:25;;;;;;;0.10;0.10;;;;;;;25.52;37.02;102397.09;5052362;28;20052;-68
2023/06/05 09:12:59;;;;;;;0.10;0.10;;;;;;;24.89;37.62;102391.41;5051986;28;20130;-68
2023/06/05 09:15:32;;;;;;;0.03;0.03;;;;;;;25.29;38.41;102382.09;5048762;28;20439;-68
2023/06/05 09:18:11;;;;;;;0.10;0.10;;;;;;;25.33;37.61;102382.34;5046529;28;20032;-67
2023/06/05 09:20:39;;;;;;;0.10;0.10;;;;;;;25.26;38.25;102377.97;5045411;28;20024;-67
2023/06/05 09:23:22;;;;;;;0.00;0.00;;;;;;;24.96;38.32;102385.63;5025726;28;20113;-65
2023/06/05 09:25:48;;;;;;;0.10;0.10;;;;;;;24.62;39.31;102384.63;5027181;28;20045;-69
2023/06/05 09:28:15;;;;;;;0.10;0.10;;;;;;;23.87;40.43;102380.97;5027199;28;20532;-67
2023/06/05 09:31:00;;;;;;;0.00;0.00;;;;;;;25.13;38.13;102383.31;5030672;28;20067;-67
2023/06/05 09:33:31;;;;;;;0.00;0.00;;;;;;;25.26;37.32;102385.41;5044641;28;20037;-65
2023/06/05 09:36:13;;;;;;;0.10;0.10;;;;;;;25.49;36.97;102378.41;5032017;28;20025;-66
2023/06/05 09:38:42;;;;;;;0.10;0.10;;;;;;;24.95;38.10;102379.28;5031884;28;20026;-66
2023/06/05 09:41:09;;;;;;;0.10;0.10;;;;;;;25.14;38.05;102379.44;5032230;28;20020;-68
2023/06/05 09:43:38;;;;;;;0.10;0.10;;;;;;;26.27;36.65;102374.34;5031907;28;20095;-67
2023/06/05 09:46:07;;;;;;;0.10;0.10;;;;;;;23.71;40.69;102376.59;5031868;28;20379;-64
2023/06/05 09:48:32;;;;;;;0.00;0.00;;;;;;;24.75;39.52;102365.63;5039858;28;20032;-67
2023/06/05 09:51:12;;;;;;;0.00;0.00;;;;;;;25.66;37.06;102378.78;5049528;28;20032;-67
2023/06/05 09:53:50;;;;;;;0.08;0.08;;;;;;;26.63;36.02;102374.75;5031701;28;20070;-67
2023/06/05 09:56:18;;;;;;;0.00;0.00;;;;;;;26.26;35.49;102372.69;5050063;28;20469;-67
2023/06/05 09:58:51;;;;;;;0.30;0.10;;;;;;;27.17;34.97;102371.50;5050943;28;20033;-66
2023/06/05 10:01:22;;;;;;;0.00;0.00;;;;;;;27.13;34.50;102368.53;5032654;28;20044;-68
2023/06/05 10:03:55;;;;;;;0.05;0.05;;;;;;;27.47;34.04;102368.31;5052446;28;20029;-68
2023/06/05 10:06:23;;;;;;;0.00;0.00;;;;;;;25.46;37.00;102368.78;5038994;28;20039;-66
2023/06/05 10:08:52;;;;;;;0.00;0.00;;;;;;;24.84;38.81;102358.47;5047053;28;20036;-67
2023/06/05 10:11:20;;;;;;;0.00;0.00;;;;;;;26.27;36.26;102352.31;5047944;28;20104;-67
2023/06/05 10:13:47;;;;;;;0.00;0.00;;;;;;;26.31;34.93;102356.13;5029031;28;20033;-66
2023/06/05 10:16:13;;;;;;;0.00;0.00;;;;;;;27.11;33.84;102356.16;5039888;28;20033;-68
2023/06/05 10:18:38;;;;;;;0.00;0.00;;;;;;;26.35;35.00;102359.09;5030093;28;20041;-67
2023/06/05 10:21:05;;;;;;;0.00;0.00;;;;;;;25.36;36.96;102352.31;5044642;28;20497;-68
2023/06/05 10:23:31;;;;;;;0.00;0.00;;;;;;;26.29;35.55;102360.28;5047916;28;20110;-64
2023/06/05 10:25:58;;;;;;;0.00;0.00;;;;;;;27.02;34.16;102350.50;5050943;28;20053;-67
2023/06/05 10:28:41;;;;;;;0.00;0.00;;;;;;;27.10;34.07;102349.81;5062654;28;20110;-66
2023/06/05 10:31:26;;;;;;;0.00;0.00;;;;;;;28.23;31.56;102337.34;5057792;28;20523;-67
2023/06/05 10:34:02;;;;;;;0.00;0.00;;;;;;;26.04;34.88;102340.13;5048564;28;20040;-67
2023/06/05 10:37:03;;;;;;;0.00;0.00;;;;;;;26.02;35.44;102339.59;5040889;28;20065;-67
2023/06/05 10:39:30;;;;;;;0.00;0.00;;;;;;;27.56;32.62;102344.38;5032746;28;20037;-67
2023/06/05 10:41:57;;;;;;;0.00;0.00;;;;;;;26.99;33.08;102336.50;5046687;28;20040;-67
2023/06/05 10:44:42;;;;;;;0.00;0.00;;;;;;;28.08;31.52;102330.19;5029605;28;20090;-68
2023/06/05 10:47:49;;;;;;;0.00;0.00;;;;;;;27.33;33.22;102345.34;5036464;28;20067;-66
2023/06/05 10:50:18;;;;;;;0.00;0.00;;;;;;;26.98;33.60;102332.06;5026524;28;20045;-66
2023/06/05 10:52:45;;;;;;;0.00;0.00;;;;;;;28.06;31.76;102332.44;5044970;28;20664;-66
2023/06/05 10:55:12;;;;;;;0.00;0.00;;;;;;;29.23;29.84;102323.25;5046398;28;20457;-66
2023/06/05 10:58:02;;;;;;;0.00;0.00;;;;;;;26.86;33.52;102336.09;5047321;28;20054;-65
2023/06/05 11:00:28;;;;;;;0.00;0.00;;;;;;;28.85;30.96;102324.69;5033923;28;20043;-68
2023/06/05 11:02:54;;;;;;;0.00;0.00;;;;;;;27.12;32.88;102328.28;5027764;28;20037;-66
2023/06/05 11:05:20;;;;;;;0.00;0.00;;;;;;;27.79;32.40;102313.06;5046431;28;20119;-66
2023/06/05 11:07:46;;;;;;;0.00;0.00;;;;;;;28.93;30.11;102316.47;5045714;28;20016;-66
2023/06/05 11:10:15;;;;;;;0.00;0.00;;;;;;;27.30;32.35;102327.41;5046048;28;20060;-66
2023/06/05 11:12:41;;;;;;;0.00;0.00;;;;;;;29.09;30.09;102317.72;5046368;28;20123;-66
2023/06/05 11:15:07;;;;;;;0.00;0.00;;;;;;;28.19;30.33;102315.03;5045730;28;20132;-68
2023/06/05 11:17:34;;;;;;;0.00;0.00;;;;;;;27.39;31.62;102317.34;5045686;28;20052;-69
2023/06/05 11:20:14;;;;;;;0.00;0.00;;;;;;;26.90;33.16;102311.50;5046471;28;20017;-67
2023/06/05 11:22:52;;;;;;;0.00;0.00;;;;;;;27.16;32.20;102317.44;5045887;28;20598;-67
2023/06/05 11:25:17;;;;;;;0.00;0.00;;;;;;;28.97;30.73;102309.16;5045469;28;20458;-66